METAR Data
IDs: Format: Raw Decoded Include TAF

Data at: 1747 UTC 25 Mar 2019

KSAT 251735Z VRB03KT 10SM SCT030 SCT250 24/18 A3014 RMK AO2 T02440183
KSAT 251651Z VRB04KT 10SM SCT015 BKN020 BKN250 24/19 A3014 RMK AO2 RAE1552 SLP192 P0000 T02440189
KSAT 251626Z VRB04KT 10SM BKN013 BKN250 24/19 A3015 RMK AO2 RAE1552 P0000 T02390189
KSAT 251551Z 00000KT 7SM -RA SCT011 BKN048 BKN250 22/19 A3015 RMK AO2 DZB10E34RAB34 SLP193 SCT V BKN P0001 T02170194
KSAT 251510Z 02005KT 8SM -DZ FEW007 BKN011 OVC017 21/18 A3014 RMK AO2 DZB10 P0000 T02110178
KSAT 251451Z 00000KT 7SM BKN011 OVC018 21/18 A3013 RMK AO2 PRESRR SLP188 T02110178 53025
KSAT 251431Z 00000KT 8SM BKN011 BKN018 BKN250 21/18 A3011 RMK AO2 T02110178
KSAT 251412Z 19005KT 8SM SCT009 BKN017 BKN250 21/18 A3010 RMK AO2 T02110183
KSAT 251351Z COR 23004KT 8SM OVC013 21/18 A3010 RMK AO2 SLP176 T02060178
KSAT 251251Z 21005KT 6SM BR BKN009 OVC015 20/18 A3008 RMK AO2 SLP171 SHRA NE-SE T02000178
KSAT 251213Z 21006KT 10SM BKN009 OVC022 20/18 A3007 RMK AO2 T02000178
KSAT 251151Z 19007KT 10SM OVC011 20/18 A3006 RMK AO2 SLP162 T02000178 10206 20200 53003
KSAT 251051Z 19007KT 10SM OVC011 20/18 A3005 RMK AO2 SLP158 T02000178
KSAT 250951Z 21004KT 10SM OVC010 21/18 A3005 RMK AO2 SLP159 T02060183
KSAT 250942Z 20004KT 10SM OVC010 20/18 A3005 RMK AO2 T02000183
KSAT 250851Z 17007KT 10SM OVC008 21/18 A3005 RMK AO2 SLP159 T02060183 58007
KSAT 250751Z 17007KT 10SM OVC008 21/18 A3006 RMK AO2 SLP163 T02060183
KSAT 250651Z 18006KT 10SM OVC009 21/18 A3008 RMK AO2 SLP170 T02060183
KSAT 250551Z 17008G16KT 10SM OVC008 21/18 A3007 RMK AO2 SLP167 T02060183 10244 20200 402720183 50013
KSAT 250523Z 17007KT 10SM BKN009 BKN035 BKN250 21/18 A3007 RMK AO2 T02060183
KSAT 250451Z 16008KT 10SM BKN011 BKN034 BKN250 20/18 A3007 RMK AO2 SLP167 T02000178
KSAT 250430Z 16007KT 10SM BKN012 BKN034 BKN250 21/18 A3007 RMK AO2 BKN012 V SCT T02060178
KSAT 250351Z COR 16009KT 10SM SCT021 SCT040 BKN250 21/18 A3007 RMK AO2 SLP166 T02060178
KSAT 250251Z 15010KT 10SM FEW020 FEW040 FEW250 22/18 A3003 RMK AO2 SLP153 T02220183 53015
KSAT 250151Z 15010KT 10SM FEW041 FEW250 23/17 A3000 RMK AO2 SLP144 T02330172
KSAT 250051Z 17008KT 10SM FEW043 FEW250 24/16 A2998 RMK AO2 SLP137 T02440161
KSAT 242351Z 14010KT 10SM FEW044 24/17 A2999 RMK AO2 SLP139 T02440167 10272 20222 56010
KSAT 242251Z 12005KT 10SM SCT042 26/17 A3000 RMK AO2 SLP143 T02560167
KSAT 242151Z 21007KT 10SM BKN039 27/17 A3000 RMK AO2 SLP143 T02670167
KSAT 242051Z VRB05KT 10SM BKN035 26/17 A3002 RMK AO2 SLP148 T02610167 58022
KSAT 241951Z 17007KT 10SM FEW027 BKN034 25/17 A3004 RMK AO2 SLP157 T02500172
KSAT 241851Z 18006KT 10SM OVC030 23/17 A3007 RMK AO2 SLP167 T02330172
KSAT 241751Z 20009KT 10SM OVC024 22/17 A3009 RMK AO2 SLP173 60000 T02220167 10228 20183 58006
KSAT 241651Z 20006KT 10SM OVC021 22/17 A3010 RMK AO2 SLP179 T02170167
KSAT 241635Z VRB05KT 10SM SCT016 OVC021 22/17 A3011 RMK AO2 T02170172
KSAT 241551Z 19007KT 10SM BKN013 OVC019 21/17 A3011 RMK AO2 SLP182 T02060172
KSAT 241451Z 16007KT 10SM BKN014 OVC023 19/17 A3010 RMK AO2 SLP180 BKN V SCT 60000 T01940172 51014
KSAT 241436Z 16007KT 10SM SCT010 BKN015 OVC023 19/17 A3010 RMK AO2 T01940172
KSAT 241351Z 16008KT 10SM OVC012 19/17 A3010 RMK AO2 RAB22E39 SLP176 P0000 T01890167
KSAT 241251Z 16008KT 10SM BKN010 OVC014 19/17 A3008 RMK AO2 SLP170 T01890167
KSAT 241151Z 16007KT 10SM BKN010 OVC016 19/17 A3006 RMK AO2 SLP165 T01890167 10189 20183 51003
KSAT 241147Z 15008KT 10SM BKN010 OVC016 19/17 A3006 RMK AO2
KSAT 241137Z 15008KT 10SM BKN009 OVC018 19/17 A3006 RMK AO2 T01890167
KSAT 241058Z 14008KT 10SM BKN012 OVC019 19/17 A3006 RMK AO2 T01890167
KSAT 241051Z 15008KT 10SM BKN015 OVC021 19/17 A3006 RMK AO2 SLP164 T01890167
KSAT 240958Z 16007KT 10SM FEW009 BKN017 OVC034 18/17 A3005 RMK AO2 T01830167
KSAT 240951Z 16005KT 10SM BKN012 OVC019 18/17 A3005 RMK AO2 SLP162 T01830167
KSAT 240851Z 16005KT 10SM OVC010 19/17 A3005 RMK AO2 SLP160 T01890167 56006
KSAT 240820Z 18010KT 10SM OVC014 19/17 A3005 RMK AO2 T01890167
KSAT 240801Z 17008KT 10SM OVC015 19/17 A3005 RMK AO2 T01890167
KSAT 240751Z 18007KT 10SM OVC014 19/17 A3006 RMK AO2 SLP163 T01890167
KSAT 240703Z 17008KT 10SM OVC014 19/17 A3006 RMK AO2 T01890167
KSAT 240651Z 17007KT 10SM BKN015 19/17 A3006 RMK AO2 SLP163 T01890167
KSAT 240551Z 16009KT 10SM BKN015 19/17 A3007 RMK AO2 SLP167 60000 T01890167 10211 20189 402330167 58001